Time;durP1;ratioP1;P1;durP2;ratioP2;P2;SDS_P1;SDS_P2;PMS_P1;PMS_P2;Temp;Humidity;BMP_temperature;BMP_pressure;BME280_temperature;BME280_humidity;BME280_pressure;Samples;Min_cycle;Max_cycle;Signal;HPM_P1;HPM_P2
2021/07/16 00:00:29;;;;;;;;;10.00;10.00;;;;;19.63;84.78;99274.50;3262144;40;3508558;-58
2021/07/16 00:02:57;;;;;;;;;15.50;11.00;;;;;20.02;82.76;99268.59;3266432;40;2792943;-57
2021/07/16 00:05:25;;;;;;;;;11.67;11.67;;;;;19.86;83.51;99274.81;3243337;40;3532871;-58
2021/07/16 00:07:52;;;;;;;;;12.00;12.00;;;;;19.48;85.29;99275.13;3266186;40;2790860;-58
2021/07/16 00:10:23;;;;;;;;;13.00;13.00;;;;;18.70;88.76;99283.19;3266117;40;2795067;-58
2021/07/16 00:12:51;;;;;;;;;11.00;10.50;;;;;18.34;91.46;99282.34;3264048;40;2787716;-57
2021/07/16 00:15:20;;;;;;;;;11.50;11.00;;;;;18.60;89.91;99274.28;3249740;40;2782595;-57
2021/07/16 00:17:49;;;;;;;;;13.67;12.00;;;;;18.88;88.90;99277.78;3240255;40;2787875;-58
2021/07/16 00:20:17;;;;;;;;;14.33;13.00;;;;;19.48;86.68;99275.13;3258647;40;3533552;-58
2021/07/16 00:22:45;;;;;;;;;15.33;12.33;;;;;19.23;87.26;99278.72;3243405;40;2785789;-58
2021/07/16 00:25:13;;;;;;;;;13.00;13.00;;;;;18.94;88.43;99277.16;3261075;40;3533536;-57
2021/07/16 00:27:40;;;;;;;;;9.00;9.00;;;;;17.65;93.69;99287.28;3245451;40;2754502;-57
2021/07/16 00:30:10;;;;;;;;;12.00;11.00;;;;;18.64;91.17;99281.97;3248584;40;2800247;-57
2021/07/16 00:32:37;;;;;;;;;14.00;11.00;;;;;18.90;87.21;99283.06;3241518;40;2789894;-57
2021/07/16 00:35:06;;;;;;;;;14.00;12.50;;;;;18.63;89.81;99282.97;3248259;40;2788758;-57
2021/07/16 00:37:34;;;;;;;;;13.33;11.67;;;;;18.46;91.60;99285.66;3235372;40;3508529;-57
2021/07/16 00:40:07;;;;;;;;;11.00;11.00;;;;;17.76;93.88;99284.34;3259995;40;3508556;-57
2021/07/16 00:42:34;;;;;;;;;12.00;12.00;;;;;18.05;93.87;99279.81;3262700;40;2807508;-57
2021/07/16 00:45:06;;;;;;;;;12.00;11.33;;;;;19.13;88.33;99284.25;3244915;40;3535640;-57
2021/07/16 00:47:33;;;;;;;;;12.00;12.00;;;;;18.92;88.04;99287.31;3263175;40;2792932;-57
2021/07/16 00:50:02;;;;;;;;;10.00;10.00;;;;;18.05;92.72;99287.97;3237627;40;2785641;-57
2021/07/16 00:52:31;;;;;;;;;17.00;13.00;;;;;18.06;94.06;99287.84;3253694;40;2811682;-58
2021/07/16 00:54:58;;;;;;;;;13.00;13.00;;;;;18.34;92.47;99287.78;3247090;40;2798192;-57
2021/07/16 00:57:26;;;;;;;;;11.33;11.33;;;;;17.39;95.48;99289.81;3242049;40;2788922;-57
2021/07/16 00:59:54;;;;;;;;;13.00;13.00;;;;;17.70;95.87;99294.97;3260637;40;3527297;-57
2021/07/16 01:02:22;;;;;;;;;11.00;10.00;;;;;17.94;93.05;99302.63;3249630;40;2783546;-58
2021/07/16 01:04:50;;;;;;;;;15.67;13.33;;;;;18.59;90.60;99292.47;3236030;40;2796161;-57
2021/07/16 01:07:20;;;;;;;;;14.33;14.33;;;;;18.33;90.68;99288.81;3272024;40;2810644;-57
2021/07/16 01:09:50;;;;;;;;;13.33;12.33;;;;;18.28;92.18;99282.97;3256740;40;3522074;-56
2021/07/16 01:12:19;;;;;;;;;14.33;13.33;;;;;18.49;90.35;99290.81;3251220;40;3520042;-55
2021/07/16 01:14:49;;;;;;;;;12.00;12.00;;;;;17.51;95.56;99295.91;3252322;40;3513752;-57
2021/07/16 01:17:16;;;;;;;;;13.00;12.00;;;;;17.50;96.41;99296.91;3254410;40;2804379;-58
2021/07/16 01:20:05;;;;;;;;;14.00;13.00;;;;;17.56;96.22;99299.00;3250520;40;2787732;-57
2021/07/16 01:22:36;;;;;;;;;15.00;13.00;;;;;17.82;95.24;99298.38;3242473;40;2800337;-58
2021/07/16 01:25:13;;;;;;;;;15.00;13.67;;;;;17.77;94.29;99287.94;3262172;40;2790968;-58
2021/07/16 01:27:47;;;;;;;;;14.50;13.00;;;;;17.53;95.70;99285.75;3261449;40;2804445;-58
2021/07/16 01:30:20;;;;;;;;;13.00;13.00;;;;;17.83;95.68;99300.09;3239668;40;3533543;-57
2021/07/16 01:32:49;;;;;;;;;14.00;11.00;;;;;17.47;97.59;99295.34;3257354;40;2786748;-57
2021/07/16 01:35:18;;;;;;;;;13.33;10.67;;;;;18.48;93.29;99284.50;3246990;40;3507576;-58
2021/07/16 01:37:46;;;;;;;;;17.50;14.00;;;;;18.39;92.16;99280.00;3249705;40;2816945;-57
2021/07/16 01:40:21;;;;;;;;;12.00;12.00;;;;;17.94;95.08;99283.59;3245277;40;3523126;-58
2021/07/16 01:42:57;;;;;;;;;15.50;14.50;;;;;17.98;95.42;99276.84;3252192;40;2483555;-57
2021/07/16 01:45:33;;;;;;;;;15.00;13.67;;;;;18.47;93.16;99277.38;3243982;40;3525183;-57
2021/07/16 01:48:07;;;;;;;;;16.67;14.00;;;;;18.29;92.97;99280.06;3258845;40;3537944;-58
2021/07/16 01:50:36;;;;;;;;;15.00;15.00;;;;;17.96;95.47;99284.31;3247652;40;2801277;-58
2021/07/16 01:53:04;;;;;;;;;14.00;13.00;;;;;18.53;93.52;99276.75;3249300;40;2797103;-58
2021/07/16 01:55:34;;;;;;;;;16.00;16.00;;;;;18.18;94.66;99272.16;3237439;40;2815844;-57
2021/07/16 01:58:08;;;;;;;;;16.33;15.67;;;;;17.87;96.46;99277.91;3239377;40;3554403;-57
2021/07/16 02:00:42;;;;;;;;;14.67;13.33;;;;;18.30;95.32;99280.94;3242934;40;2796119;-57
2021/07/16 02:03:13;;;;;;;;;22.33;16.67;;;;;18.29;95.02;99271.91;3258106;40;3557525;-57
2021/07/16 02:05:43;;;;;;;;;21.00;20.00;;;;;18.33;93.88;99258.91;3234919;40;2496132;-58
2021/07/16 02:08:23;;;;;;;;;18.50;18.50;;;;;18.72;92.00;99254.00;3233140;40;2826340;-57
2021/07/16 02:10:55;;;;;;;;;18.00;16.33;;;;;18.51;92.00;99242.56;3244101;40;2827588;-57
2021/07/16 02:13:24;;;;;;;;;19.33;16.00;;;;;18.19;94.21;99228.53;3245207;40;3571007;-58
2021/07/16 02:15:54;;;;;;;;;20.00;20.00;;;;;18.60;93.16;99234.34;3242524;40;2825228;-58
2021/07/16 02:18:23;;;;;;;;;23.50;22.00;;;;;18.47;92.91;99239.31;3242107;40;2834577;-57
2021/07/16 02:20:52;;;;;;;;;17.50;17.50;;;;;17.86;95.87;99234.63;3242486;40;2837733;-58
2021/07/16 02:23:27;;;;;;;;;23.50;18.50;;;;;17.99;95.74;99240.53;3243580;40;2833632;-57
2021/07/16 02:25:55;;;;;;;;;12.50;12.50;;;;;18.16;95.15;99236.97;3248397;40;2800200;-57
2021/07/16 02:28:30;;;;;;;;;17.00;17.00;;;;;18.54;92.44;99224.09;3233072;40;2494049;-56
2021/07/16 02:31:11;;;;;;;;;21.50;21.50;;;;;18.64;92.62;99221.25;3232126;40;2833578;-58
2021/07/16 02:33:40;;;;;;;;;19.50;19.50;;;;;18.57;93.31;99215.63;3235629;40;2831484;-58
2021/07/16 02:36:09;;;;;;;;;22.00;19.50;;;;;18.45;93.97;99219.59;3235328;40;2839906;-58
2021/07/16 02:38:38;;;;;;;;;21.50;21.50;;;;;18.50;94.30;99227.28;3233205;40;2844242;-57
2021/07/16 02:41:06;;;;;;;;;21.00;20.50;;;;;18.47;95.45;99231.16;3235929;40;2843979;-58
2021/07/16 02:43:36;;;;;;;;;20.00;20.00;;;;;18.43;94.83;99232.47;3236695;40;2843987;-57
2021/07/16 02:46:04;;;;;;;;;28.00;22.67;;;;;18.51;94.79;99229.84;3236369;40;3582469;-57
2021/07/16 02:48:32;;;;;;;;;25.00;21.50;;;;;18.25;96.34;99228.94;3232475;40;2834649;-58
2021/07/16 02:51:01;;;;;;;;;25.67;24.67;;;;;18.09;98.13;99233.19;3229091;40;2846114;-58
2021/07/16 02:53:29;;;;;;;;;24.50;23.50;;;;;18.13;97.56;99236.44;3250631;40;2836677;-57
2021/07/16 02:55:57;;;;;;;;;27.50;23.50;;;;;18.72;94.36;99242.22;3232316;40;2838768;-58
2021/07/16 02:58:25;;;;;;;;;24.33;24.00;;;;;18.75;93.51;99242.81;3238494;40;3589760;-58
2021/07/16 03:00:53;;;;;;;;;27.33;26.33;;;;;18.35;95.58;99237.84;3239190;40;3599134;-57
2021/07/16 03:03:22;;;;;;;;;25.67;25.67;;;;;18.26;96.08;99236.06;3236647;40;2854438;-58
2021/07/16 03:05:51;;;;;;;;;29.33;27.00;;;;;18.16;97.82;99250.56;3249478;40;2850331;-57
2021/07/16 03:08:20;;;;;;;;;25.67;24.33;;;;;17.81;99.01;99242.38;3251111;40;2856602;-57
2021/07/16 03:10:48;;;;;;;;;24.00;22.50;;;;;18.37;96.19;99241.25;3254033;40;2844044;-57
2021/07/16 03:13:18;;;;;;;;;23.50;22.00;;;;;18.33;95.55;99242.59;3230006;40;2841896;-57
2021/07/16 03:15:47;;;;;;;;;23.00;22.00;;;;;18.32;95.29;99243.59;3236318;40;2828423;-57
2021/07/16 03:18:16;;;;;;;;;24.00;20.50;;;;;18.47;95.33;99255.63;3233352;40;2836687;-57
2021/07/16 03:20:47;;;;;;;;;25.00;20.00;;;;;17.56;98.58;99261.00;3238332;40;2838752;-57
2021/07/16 03:23:17;;;;;;;;;26.00;22.00;;;;;16.95;100.00;99269.63;3232135;40;2840852;-56
2021/07/16 03:25:45;;;;;;;;;23.00;20.67;;;;;16.86;100.00;99271.38;3240482;40;3583525;-57
2021/07/16 03:28:13;;;;;;;;;21.00;21.00;;;;;17.14;100.00;99272.31;3239404;40;3564768;-55
2021/07/16 03:30:42;;;;;;;;;25.67;24.33;;;;;17.81;99.79;99274.94;3262872;40;2845310;-56
2021/07/16 03:33:11;;;;;;;;;28.67;28.33;;;;;17.86;99.08;99259.91;3259326;40;3594999;-57
2021/07/16 03:35:39;;;;;;;;;27.33;26.00;;;;;18.36;98.71;99264.03;3245737;40;3586654;-57
2021/07/16 03:38:08;;;;;;;;;29.00;28.00;;;;;18.08;100.00;99268.63;3263555;40;3602271;-58
2021/07/16 03:40:35;;;;;;;;;32.33;30.00;;;;;18.44;100.00;99269.53;3244201;40;3575184;-57
2021/07/16 03:43:03;;;;;;;;;30.00;28.67;;;;;18.84;97.58;99273.66;3249132;40;3583529;-58
2021/07/16 03:45:35;;;;;;;;;34.00;31.00;;;;;18.88;96.96;99269.63;3243955;40;3586682;-57
2021/07/16 03:48:04;;;;;;;;;32.67;30.67;;;;;18.13;100.00;99269.03;3254598;40;3578303;-57
2021/07/16 03:50:32;;;;;;;;;36.00;31.00;;;;;18.53;100.00;99265.88;3245476;40;3583538;-57
2021/07/16 03:53:00;;;;;;;;;33.00;31.33;;;;;18.79;98.62;99273.28;3244719;40;2846146;-57
2021/07/16 03:55:29;;;;;;;;;34.00;32.00;;;;;19.06;97.60;99278.59;3265389;40;3592920;-58
2021/07/16 03:57:57;;;;;;;;;32.33;31.00;;;;;18.87;97.26;99281.50;3247819;40;3571053;-57
2021/07/16 04:00:30;;;;;;;;;30.00;30.00;;;;;19.10;97.57;99289.16;3243264;40;3586659;-58
2021/07/16 04:03:00;;;;;;;;;34.00;31.00;;;;;18.87;98.23;99295.09;3262484;40;3588781;-58
2021/07/16 04:05:31;;;;;;;;;40.33;31.00;;;;;18.99;97.60;99299.28;3240507;40;3606455;-57
2021/07/16 04:08:04;;;;;;;;;33.67;32.00;;;;;19.08;97.74;99295.59;3245187;40;3605645;-57
2021/07/16 04:10:35;;;;;;;;;38.00;34.33;;;;;19.08;98.60;99301.03;3241792;40;3597069;-57
2021/07/16 04:13:10;;;;;;;;;40.33;35.33;;;;;18.81;99.21;99293.88;3238981;40;3617883;-58
2021/07/16 04:15:41;;;;;;;;;34.67;32.67;;;;;19.08;98.41;99303.78;3245503;40;3596030;-57
2021/07/16 04:18:11;;;;;;;;;40.67;34.00;;;;;18.91;100.00;99304.66;3242804;40;3591935;-57
2021/07/16 04:20:40;;;;;;;;;40.67;33.00;;;;;18.97;100.00;99300.47;3260590;40;3596021;-58
2021/07/16 04:23:08;;;;;;;;;37.67;30.67;;;;;19.40;98.08;99302.28;3247512;40;3597098;-57
2021/07/16 04:25:36;;;;;;;;;36.67;33.33;;;;;19.43;96.74;99302.00;3247482;40;3594987;-57
2021/07/16 04:28:07;;;;;;;;;38.67;33.67;;;;;19.74;96.00;99309.66;3244384;40;3590849;-58
2021/07/16 04:30:35;;;;;;;;;37.67;33.00;;;;;19.63;96.69;99308.03;3245280;40;3605391;-57
2021/07/16 04:33:06;;;;;;;;;43.33;37.00;;;;;19.60;97.94;99302.94;3240511;40;3585636;-58
2021/07/16 04:35:34;;;;;;;;;40.33;34.67;;;;;19.64;98.29;99308.91;3241860;40;3589010;-57
2021/07/16 04:38:03;;;;;;;;;42.33;34.33;;;;;19.89;95.57;99316.22;3245815;40;3592916;-58
2021/07/16 04:40:32;;;;;;;;;43.67;35.67;;;;;19.75;96.16;99314.13;3243277;40;3577280;-57
2021/07/16 04:43:02;;;;;;;;;39.33;33.00;;;;;19.81;96.57;99327.06;3245454;40;3581501;-57
2021/07/16 04:45:31;;;;;;;;;41.67;33.33;;;;;19.77;97.50;99325.69;3242973;40;3593935;-57
2021/07/16 04:47:59;;;;;;;;;41.33;35.67;;;;;19.93;96.20;99338.53;3245390;40;3578348;-57
2021/07/16 04:50:28;;;;;;;;;41.25;32.50;;;;;20.12;95.17;99323.81;3244058;40;3624193;-57
2021/07/16 04:52:56;;;;;;;;;42.67;35.33;;;;;20.15;95.18;99323.47;3265567;40;3582465;-58
2021/07/16 04:55:24;;;;;;;;;45.00;38.00;;;;;20.15;95.50;99334.38;3244132;40;3596103;-57
2021/07/16 04:57:52;;;;;;;;;40.33;33.33;;;;;20.13;96.32;99330.97;3238754;40;3612710;-57
2021/07/16 05:00:21;;;;;;;;;43.67;35.00;;;;;20.19;96.16;99338.47;3244959;40;3588324;-57
2021/07/16 05:02:48;;;;;;;;;40.67;35.00;;;;;20.16;96.69;99333.34;3248292;40;3566903;-57
2021/07/16 05:05:17;;;;;;;;;39.67;34.67;;;;;20.28;95.80;99323.03;3244358;40;3604923;-57
2021/07/16 05:07:46;;;;;;;;;45.00;36.67;;;;;20.28;95.79;99318.41;3260065;40;3590829;-57
2021/07/16 05:10:14;;;;;;;;;42.00;35.00;;;;;20.33;95.89;99316.03;3260703;40;3597087;-57
2021/07/16 05:12:43;;;;;;;;;43.00;36.00;;;;;20.37;96.78;99317.41;3241168;40;2854515;-57
2021/07/16 05:15:12;;;;;;;;;43.33;36.67;;;;;20.64;95.80;99331.81;3262458;40;3586654;-57
2021/07/16 05:17:40;;;;;;;;;43.67;37.67;;;;;20.62;95.18;99325.69;3247422;40;3596097;-58
2021/07/16 05:20:09;;;;;;;;;45.00;38.00;;;;;20.71;95.55;99323.81;3237270;40;2844045;-58
2021/07/16 05:22:37;;;;;;;;;46.00;36.00;;;;;20.75;94.69;99319.75;3264582;40;3594203;-57
2021/07/16 05:25:07;;;;;;;;;45.67;36.33;;;;;20.78;94.63;99328.44;3248868;40;3584547;-57
2021/07/16 05:27:35;;;;;;;;;44.67;37.00;;;;;20.92;94.23;99332.34;3238450;40;3588766;-58
2021/07/16 05:30:05;;;;;;;;;45.67;39.00;;;;;20.84;94.86;99337.81;3236325;40;2843987;-57
2021/07/16 05:32:33;;;;;;;;;43.33;35.00;;;;;20.88;95.81;99350.13;3252333;40;3588834;-58
2021/07/16 05:35:02;;;;;;;;;42.67;37.33;;;;;20.34;98.17;99355.91;3239498;40;3582481;-58
2021/07/16 05:37:30;;;;;;;;;45.33;37.67;;;;;20.64;98.25;99361.81;3237612;40;3591855;-58
2021/07/16 05:39:59;;;;;;;;;39.67;35.33;;;;;20.88;97.34;99358.31;3240065;40;3586912;-57
2021/07/16 05:42:27;;;;;;;;;42.67;34.33;;;;;20.67;97.69;99358.78;3237985;40;3584589;-58
2021/07/16 05:44:56;;;;;;;;;38.67;33.67;;;;;21.05;95.76;99354.53;3235043;40;2851381;-57
2021/07/16 05:47:26;;;;;;;;;59.00;46.50;;;;;21.13;95.77;99350.97;3256068;40;3621017;-57
2021/07/16 05:49:54;;;;;;;;;44.33;38.00;;;;;21.51;93.01;99356.75;3255545;40;3570000;-58
2021/07/16 05:52:23;;;;;;;;;40.00;35.67;;;;;21.46;93.20;99351.00;3236085;40;3572078;-57
2021/07/16 05:54:51;;;;;;;;;37.67;33.67;;;;;21.27;94.51;99353.03;3239016;40;3586711;-58
2021/07/16 05:57:19;;;;;;;;;36.00;32.33;;;;;21.18;95.52;99351.31;3240144;40;3599161;-57
2021/07/16 05:59:47;;;;;;;;;45.33;38.33;;;;;21.12;95.34;99341.09;3236420;40;3592900;-57
2021/07/16 06:02:16;;;;;;;;;42.33;34.00;;;;;21.55;92.83;99341.75;3237110;40;3619009;-58
2021/07/16 06:04:44;;;;;;;;;36.33;31.67;;;;;21.70;92.25;99348.22;3253818;40;3607789;-57
2021/07/16 06:07:12;;;;;;;;;36.33;31.67;;;;;21.38;93.12;99340.03;3234111;40;3575252;-58
2021/07/16 06:09:40;;;;;;;;;39.33;34.67;;;;;21.72;91.49;99344.44;3235786;40;3609643;-57
2021/07/16 06:12:08;;;;;;;;;36.67;32.00;;;;;21.65;93.09;99338.84;3235234;40;3579359;-56
2021/07/16 06:14:40;;;;;;;;;44.00;35.67;;;;;21.46;92.58;99340.06;3234711;40;3591891;-57
2021/07/16 06:17:09;;;;;;;;;39.00;34.67;;;;;21.75;92.10;99336.75;3231710;40;3566864;-57
2021/07/16 06:19:36;;;;;;;;;38.33;33.67;;;;;21.56;93.45;99335.25;3252317;40;3607499;-57
2021/07/16 06:22:05;;;;;;;;;37.33;32.33;;;;;22.13;90.01;99332.34;3238737;40;3602318;-58
2021/07/16 06:24:34;;;;;;;;;43.67;36.00;;;;;21.70;92.43;99331.81;3238512;40;3587700;-57
2021/07/16 06:27:02;;;;;;;;;30.67;30.00;;;;;21.70;92.71;99339.16;3239470;40;3584583;-57
2021/07/16 06:29:50;;;;;;;;;42.67;35.33;;;;;21.71;92.35;99340.84;3238882;40;3598354;-57
2021/07/16 06:32:18;;;;;;;;;36.33;32.00;;;;;22.47;89.64;99338.53;3239999;40;3590825;-57
2021/07/16 06:34:47;;;;;;;;;37.00;32.00;;;;;21.89;91.41;99335.19;3243331;40;3595018;-57
2021/07/16 06:37:15;;;;;;;;;38.00;34.00;;;;;22.43;89.81;99337.19;3260626;40;3604361;-57
2021/07/16 06:39:43;;;;;;;;;38.00;34.00;;;;;22.93;86.88;99338.56;3248469;40;3594986;-57
2021/07/16 06:42:11;;;;;;;;;41.00;36.67;;;;;22.30;88.27;99337.75;3248085;40;3584845;-57
2021/07/16 06:44:42;;;;;;;;;41.67;34.33;;;;;23.17;85.29;99338.41;3242286;40;3586936;-58
2021/07/16 06:47:10;;;;;;;;;34.33;32.67;;;;;23.21;84.75;99336.16;3247533;40;3581688;-57
2021/07/16 06:49:39;;;;;;;;;33.50;29.75;;;;;23.15;84.74;99331.41;3249320;40;3602280;-58
2021/07/16 06:52:09;;;;;;;;;30.33;29.33;;;;;23.69;83.12;99341.34;3265418;40;3601292;-58
2021/07/16 06:54:38;;;;;;;;;34.00;32.33;;;;;24.04;80.55;99337.03;3249563;40;3600202;-58
2021/07/16 06:57:06;;;;;;;;;34.67;30.33;;;;;23.42;84.01;99336.28;3246353;40;3584560;-58
2021/07/16 06:59:35;;;;;;;;;39.50;30.00;;;;;23.40;85.05;99330.13;3245610;40;3612761;-58
2021/07/16 07:02:03;;;;;;;;;31.00;30.00;;;;;24.48;79.31;99347.13;3262961;40;3578352;-57
2021/07/16 07:04:32;;;;;;;;;31.00;28.33;;;;;23.88;81.36;99338.06;3237963;40;3599138;-57
2021/07/16 07:07:00;;;;;;;;;36.50;32.00;;;;;24.28;80.69;99344.97;3229486;40;3610680;-57
2021/07/16 07:09:30;;;;;;;;;31.00;29.00;;;;;25.12;77.81;99341.72;3258677;40;4352260;-58
2021/07/16 07:12:01;;;;;;;;;35.67;32.33;;;;;24.64;79.97;99346.03;3264114;40;3589835;-58
2021/07/16 07:14:29;;;;;;;;;32.00;28.25;;;;;24.02;82.17;99350.09;3245978;40;4356443;-56
2021/07/16 07:16:57;;;;;;;;;37.33;30.00;;;;;25.17;77.19;99355.72;3265638;40;3600227;-58
2021/07/16 07:19:26;;;;;;;;;27.67;27.67;;;;;25.41;76.21;99356.38;3234059;40;3594983;-58
2021/07/16 07:21:55;;;;;;;;;29.00;28.00;;;;;25.13;79.46;99348.88;3246714;40;3608548;-57
2021/07/16 07:24:23;;;;;;;;;30.33;30.00;;;;;25.69;75.56;99355.50;3262405;40;3571062;-57
2021/07/16 07:26:55;;;;;;;;;31.33;30.00;;;;;25.03;79.02;99351.09;3246960;40;3577288;-59
2021/07/16 07:29:25;;;;;;;;;35.25;31.50;;;;;25.29;77.11;99356.03;3261889;40;3600265;-58
2021/07/16 07:31:53;;;;;;;;;27.00;27.00;;;;;24.61;79.37;99344.53;3254075;40;3601218;-58
2021/07/16 07:34:21;;;;;;;;;35.00;32.67;;;;;25.03;78.01;99348.38;3248345;40;3597088;-57
2021/07/16 07:36:49;;;;;;;;;33.67;28.33;;;;;24.79;80.27;99346.00;3248334;40;3577284;-60
2021/07/16 07:39:18;;;;;;;;;36.33;32.67;;;;;24.69;79.63;99347.16;3246277;40;3597047;-58
2021/07/16 07:41:46;;;;;;;;;31.33;29.67;;;;;24.44;80.02;99352.16;3246733;40;3587695;-58
2021/07/16 07:44:15;;;;;;;;;35.00;32.00;;;;;24.47;82.04;99349.03;3248283;40;3594976;-59
2021/07/16 07:46:44;;;;;;;;;32.67;29.33;;;;;24.39;81.71;99345.53;3247786;40;3615043;-59
2021/07/16 07:49:13;;;;;;;;;30.00;30.00;;;;;24.60;80.73;99345.59;3239866;40;3577328;-58
2021/07/16 07:51:43;;;;;;;;;36.00;31.33;;;;;24.74;80.43;99352.06;3239256;40;3606521;-59
2021/07/16 07:54:11;;;;;;;;;31.33;30.33;;;;;24.77;80.59;99353.59;3236927;40;3587691;-60
2021/07/16 07:56:39;;;;;;;;;30.67;30.00;;;;;25.17;78.87;99344.75;3249624;40;3570241;-58
2021/07/16 07:59:07;;;;;;;;;31.00;27.67;;;;;24.52;80.62;99340.22;3247020;40;3575231;-59
2021/07/16 08:01:35;;;;;;;;;31.67;29.33;;;;;24.22;81.54;99345.72;3246521;40;3590832;-59
2021/07/16 08:04:04;;;;;;;;;35.67;30.67;;;;;24.36;81.17;99346.75;3249201;40;3590820;-59
2021/07/16 08:06:38;;;;;;;;;23.00;21.50;;;;;24.30;82.41;99350.25;3242180;40;2834604;-58
2021/07/16 08:09:06;;;;;;;;;40.00;33.00;;;;;24.58;81.70;99355.91;3239496;40;3607487;-58
2021/07/16 08:11:34;;;;;;;;;32.33;29.00;;;;;23.95;81.75;99349.16;3248540;40;3595004;-58
2021/07/16 08:14:03;;;;;;;;;38.00;33.67;;;;;24.40;81.87;99353.53;3244205;40;3600192;-58
2021/07/16 08:16:31;;;;;;;;;25.00;25.00;;;;;24.74;80.18;99358.41;3245289;40;3592896;-58
2021/07/16 08:18:59;;;;;;;;;33.33;30.33;;;;;24.37;81.32;99353.09;3244806;40;3594200;-58
2021/07/16 08:21:27;;;;;;;;;36.33;32.67;;;;;25.04;79.19;99358.31;3246107;40;3591894;-59
2021/07/16 08:24:00;;;;;;;;;34.00;31.00;;;;;25.11;78.64;99355.63;3238360;40;3596029;-58
2021/07/16 08:26:28;;;;;;;;;46.00;33.67;;;;;25.31;77.33;99355.84;3247508;40;1909615;-59
2021/07/16 08:28:58;;;;;;;;;25.67;22.67;;;;;24.40;80.11;99352.69;3261250;40;3572084;-59
2021/07/16 08:31:26;;;;;;;;;35.00;31.67;;;;;24.48;81.35;99355.34;3246661;40;3595260;-59
2021/07/16 08:33:54;;;;;;;;;34.33;32.33;;;;;25.14;78.66;99350.56;3248110;40;3562158;-59
2021/07/16 08:36:22;;;;;;;;;31.33;30.00;;;;;25.49;77.15;99352.59;3243308;40;3583526;-58
2021/07/16 08:38:50;;;;;;;;;34.00;30.00;;;;;24.78;78.73;99360.75;3245073;40;3590129;-59
2021/07/16 08:41:22;;;;;;;;;34.00;30.00;;;;;25.03;78.44;99359.34;3245104;40;3588739;-59
2021/07/16 08:43:51;;;;;;;;;32.00;30.67;;;;;24.72;79.32;99366.03;3247456;40;3591914;-59
2021/07/16 08:46:20;;;;;;;;;30.75;30.00;;;;;24.62;79.49;99372.84;3247382;40;3591883;-59
2021/07/16 08:48:58;;;;;;;;;24.00;20.00;;;;;24.41;80.22;99370.84;3255938;40;2498531;-59
2021/07/16 08:51:28;;;;;;;;;37.75;32.00;;;;;24.71;79.84;99366.19;3264615;40;3606453;-58
2021/07/16 08:53:59;;;;;;;;;33.67;31.33;;;;;25.21;78.91;99372.66;3263634;40;3593970;-58
2021/07/16 08:56:36;;;;;;;;;27.67;27.67;;;;;25.14;78.53;99377.22;3244608;40;3583533;-58
2021/07/16 08:59:08;;;;;;;;;34.25;31.50;;;;;24.95;78.87;99368.56;3237497;40;3595070;-58
2021/07/16 09:01:42;;;;;;;;;33.67;30.33;;;;;25.05;78.23;99367.41;3257221;40;3597071;-58
2021/07/16 09:04:10;;;;;;;;;29.67;28.33;;;;;24.69;78.82;99369.13;3247108;40;3582548;-58
2021/07/16 09:06:52;;;;;;;;;45.50;34.00;;;;;25.86;76.47;99365.19;3236952;40;4364752;-59
2021/07/16 09:09:26;;;;;;;;;38.33;32.00;;;;;25.79;76.04;99358.75;3262243;40;3597054;-57
2021/07/16 09:12:01;;;;;;;;;36.75;32.50;;;;;26.28;75.83;99363.31;3243601;40;3599195;-58
2021/07/16 09:14:32;;;;;;;;;35.00;31.00;;;;;26.56;74.81;99362.41;3265175;40;3598101;-58
2021/07/16 09:17:09;;;;;;;;;27.67;25.67;;;;;26.17;74.23;99359.25;3245018;40;3574432;-57
2021/07/16 09:19:45;;;;;;;;;33.67;32.00;;;;;25.88;75.92;99365.81;3245161;40;3594991;-59
2021/07/16 09:22:21;;;;;;;;;37.67;34.33;;;;;26.36;74.11;99357.66;3249102;40;3588749;-58
2021/07/16 09:25:03;;;;;;;;;36.33;33.33;;;;;26.23;74.36;99361.19;3248126;40;3594975;-57
2021/07/16 09:27:41;;;;;;;;;36.25;32.00;;;;;25.74;74.17;99350.25;3247452;40;3598181;-56
2021/07/16 09:30:14;;;;;;;;;40.25;32.75;;;;;26.41;74.07;99357.88;3263767;40;3623206;-57
2021/07/16 09:33:15;;;;;;;;;41.25;33.00;;;;;26.85;71.60;99358.47;3261660;40;3611656;-55
2021/07/16 09:35:44;;;;;;;;;33.67;31.33;;;;;26.20;74.46;99350.59;3258038;40;3585663;-57
2021/07/16 09:38:17;;;;;;;;;35.00;31.67;;;;;26.75;72.10;99349.75;3248629;40;3598144;-57
2021/07/16 09:40:53;;;;;;;;;29.67;29.67;;;;;26.64;71.25;99346.53;3237705;40;3578393;-57
2021/07/16 09:43:26;;;;;;;;;33.67;29.33;;;;;27.04;70.16;99351.28;3244922;40;3588729;-57
2021/07/16 09:46:02;;;;;;;;;37.75;32.50;;;;;26.97;71.00;99348.53;3247301;40;3604374;-57
2021/07/16 09:48:35;;;;;;;;;34.25;30.25;;;;;27.28;71.27;99356.25;3263206;40;3609692;-57
2021/07/16 09:51:26;;;;;;;;;35.67;32.67;;;;;27.94;67.50;99349.03;3260672;40;3594995;-56
2021/07/16 09:54:00;;;;;;;;;29.00;23.00;;;;;27.58;68.31;99348.38;3249533;40;1894385;-57
2021/07/16 09:56:35;;;;;;;;;34.75;32.00;;;;;28.50;65.98;99348.44;3247798;40;3593202;-57
2021/07/16 09:59:15;;;;;;;;;33.50;31.00;;;;;28.24;65.65;99346.59;3261497;40;3598108;-58
2021/07/16 10:01:48;;;;;;;;;33.00;27.75;;;;;27.97;65.29;99343.06;3248705;40;3586642;-58
2021/07/16 10:04:21;;;;;;;;;36.75;32.00;;;;;28.47;65.68;99346.13;3252055;40;3598606;-58
2021/07/16 10:06:52;;;;;;;;;24.75;24.75;;;;;28.05;66.53;99342.00;3256513;40;3598203;-58
2021/07/16 10:09:23;;;;;;;;;36.00;31.50;;;;;28.63;64.93;99351.13;3264075;40;3603321;-60
2021/07/16 10:11:57;;;;;;;;;34.25;30.25;;;;;29.18;63.84;99355.31;3260610;40;3598188;-60
2021/07/16 10:14:28;;;;;;;;;37.00;31.14;;;;;29.43;63.04;99349.78;3270847;40;3604343;-59
2021/07/16 10:16:56;;;;;;;;;37.00;31.00;;;;;29.34;63.36;99354.75;3248933;40;1905795;-59
2021/07/16 10:19:25;;;;;;;;;25.33;25.00;;;;;29.32;62.31;99351.38;3257337;40;3571081;-60
2021/07/16 10:21:53;;;;;;;;;32.67;29.00;;;;;29.52;61.62;99351.22;3247130;40;3580404;-60
2021/07/16 10:24:24;;;;;;;;;30.67;28.33;;;;;29.79;61.37;99348.22;3248365;40;3587687;-60
2021/07/16 10:27:14;;;;;;;;;36.50;31.50;;;;;28.77;62.84;99346.38;3245034;40;3598116;-59
2021/07/16 10:29:45;;;;;;;;;29.00;28.00;;;;;29.89;59.08;99346.63;3256599;40;3587708;-57
2021/07/16 10:32:45;;;;;;;;;26.67;26.67;;;;;29.61;58.84;99347.06;3245672;40;3593954;-58
2021/07/16 10:35:23;;;;;;;;;30.00;26.25;;;;;29.93;57.83;99350.63;3248673;40;4354352;-59
2021/07/16 10:38:01;;;;;;;;;30.33;29.33;;;;;29.61;60.31;99357.31;3264839;40;3583515;-59
2021/07/16 10:40:44;;;;;;;;;29.00;29.00;;;;;29.58;58.23;99360.53;3243780;40;3575208;-57
2021/07/16 10:43:28;;;;;;;;;27.33;26.33;;;;;28.94;60.53;99352.25;3246907;40;3589794;-58
2021/07/16 10:46:02;;;;;;;;;29.33;28.33;;;;;30.23;57.81;99361.00;3242970;40;3566852;-59
2021/07/16 10:48:44;;;;;;;;;27.75;25.75;;;;;29.42;59.59;99357.25;3232234;40;3587716;-60
2021/07/16 10:51:25;;;;;;;;;24.33;23.33;;;;;30.31;55.68;99352.38;3266357;40;3577271;-62
2021/07/16 10:53:54;;;;;;;;;28.00;27.00;;;;;30.05;56.58;99352.66;3246036;40;3592907;-61
2021/07/16 10:56:47;;;;;;;;;29.33;26.00;;;;;30.11;53.77;99357.25;3243328;40;3587988;-61
2021/07/16 10:59:45;;;;;;;;;23.00;22.00;;;;;29.93;56.21;99353.38;3245570;40;3567910;-59
2021/07/16 11:02:44;;;;;;;;;23.67;20.67;;;;;31.01;53.37;99356.59;3242977;40;3571045;-58
2021/07/16 11:05:31;;;;;;;;;15.67;13.67;;;;;30.25;51.46;99357.97;3245235;40;3531491;-59
2021/07/16 11:08:02;;;;;;;;;19.67;17.33;;;;;30.59;52.10;99354.56;3245600;40;3554372;-59
2021/07/16 11:10:48;;;;;;;;;19.33;17.67;;;;;30.51;51.29;99351.28;3244897;40;2829530;-58
2021/07/16 11:13:43;;;;;;;;;16.33;13.00;;;;;30.37;51.74;99348.66;3265714;40;3537706;-59
2021/07/16 11:16:34;;;;;;;;;16.67;16.67;;;;;30.90;50.71;99351.84;3259798;40;3559589;-58
2021/07/16 11:19:08;;;;;;;;;14.00;13.00;;;;;31.10;49.83;99344.09;3259446;40;3527361;-58